Time;durP1;ratioP1;P1;durP2;ratioP2;P2;SDS_P1;SDS_P2;PMS_P1;PMS_P2;Temp;Humidity;BMP_temperature;BMP_pressure;BME280_temperature;BME280_humidity;BME280_pressure;Samples;Min_cycle;Max_cycle;Signal;HPM_P1;HPM_P2
2023/08/06 00:01:29;;;;;;;2.00;1.80;;;16.70;99.90;;;;;;5031642;28;20839;-81
2023/08/06 00:03:56;;;;;;;2.77;1.80;;;16.70;99.90;;;;;;5032546;28;20228;-79
2023/08/06 00:06:23;;;;;;;2.03;1.73;;;16.70;99.90;;;;;;5031499;28;20310;-81
2023/08/06 00:08:50;;;;;;;2.80;1.90;;;16.70;99.90;;;;;;5028708;28;20227;-82
2023/08/06 00:11:18;;;;;;;3.50;1.90;;;16.60;99.90;;;;;;5027746;28;20635;-81
2023/08/06 00:13:45;;;;;;;2.63;2.25;;;16.60;99.90;;;;;;5048452;28;20326;-80
2023/08/06 00:16:13;;;;;;;2.50;2.10;;;16.50;99.90;;;;;;5029976;28;20227;-81
2023/08/06 00:18:40;;;;;;;5.65;3.15;;;16.50;99.90;;;;;;5047721;28;20264;-80
2023/08/06 00:21:07;;;;;;;3.58;2.33;;;16.40;99.90;;;;;;5046460;28;20714;-82
2023/08/06 00:23:34;;;;;;;3.10;2.67;;;16.40;99.90;;;;;;5047272;28;20317;-82
2023/08/06 00:26:01;;;;;;;2.90;2.60;;;16.30;99.90;;;;;;5028828;28;20224;-82
2023/08/06 00:28:30;;;;;;;5.60;2.75;;;16.20;99.90;;;;;;5030676;28;20231;-77
2023/08/06 00:30:57;;;;;;;4.03;2.83;;;16.10;99.90;;;;;;5052228;28;20225;-80
2023/08/06 00:33:24;;;;;;;3.27;2.97;;;16.00;99.90;;;;;;5033273;28;20228;-80
2023/08/06 00:35:52;;;;;;;4.78;2.83;;;16.00;99.90;;;;;;5033405;28;20708;-80
2023/08/06 00:38:19;;;;;;;2.70;2.40;;;15.90;99.90;;;;;;5049306;28;20747;-78
2023/08/06 00:40:45;;;;;;;3.27;2.73;;;15.90;99.90;;;;;;5031316;28;20228;-80
2023/08/06 00:43:13;;;;;;;4.27;3.23;;;15.90;99.90;;;;;;5030802;28;20722;-79
2023/08/06 00:45:41;;;;;;;3.90;2.70;;;15.80;99.90;;;;;;5047817;28;20239;-79
2023/08/06 00:48:08;;;;;;;4.10;3.10;;;15.80;99.90;;;;;;5048269;28;20240;-80
2023/08/06 00:50:35;;;;;;;2.83;2.53;;;15.70;99.90;;;;;;5049082;28;20226;-80
2023/08/06 00:53:02;;;;;;;4.15;3.08;;;15.70;99.90;;;;;;5049215;28;20277;-80
2023/08/06 00:55:30;;;;;;;3.30;2.90;;;15.60;99.90;;;;;;5047413;28;20307;-79
2023/08/06 00:57:57;;;;;;;3.10;2.67;;;15.60;99.90;;;;;;5057439;28;20238;-79
2023/08/06 01:00:24;;;;;;;3.83;3.17;;;15.60;99.90;;;;;;5024094;28;20242;-79
2023/08/06 01:02:53;;;;;;;4.47;3.20;;;15.60;99.90;;;;;;5027728;28;20251;-80
2023/08/06 01:05:22;;;;;;;5.30;3.90;;;15.50;99.90;;;;;;5011107;28;20239;-79
2023/08/06 01:08:06;;;;;;;6.67;3.63;;;15.50;99.90;;;;;;5029595;28;20229;-79
2023/08/06 01:10:47;;;;;;;4.10;3.70;;;15.40;99.90;;;;;;5035720;28;20235;-79
2023/08/06 01:13:23;;;;;;;4.30;3.40;;;15.40;99.90;;;;;;5031063;28;20234;-79
2023/08/06 01:15:52;;;;;;;4.50;3.90;;;15.40;99.90;;;;;;5047882;28;20265;-79
2023/08/06 01:18:21;;;;;;;4.03;3.63;;;15.40;99.90;;;;;;5048462;28;20273;-79
2023/08/06 01:20:50;;;;;;;5.63;3.90;;;15.40;99.90;;;;;;5031886;28;20634;-80
2023/08/06 01:23:16;;;;;;;3.80;3.50;;;15.40;99.90;;;;;;5048651;28;20224;-79
2023/08/06 01:25:51;;;;;;;4.00;3.63;;;15.30;99.90;;;;;;5031154;28;20226;-78
2023/08/06 01:28:24;;;;;;;4.67;3.73;;;15.30;99.90;;;;;;5048830;28;20228;-80
2023/08/06 01:30:53;;;;;;;4.33;3.87;;;15.20;99.90;;;;;;5020946;28;20224;-80
2023/08/06 01:33:23;;;;;;;5.03;3.80;;;15.20;99.90;;;;;;5042305;28;20228;-78
2023/08/06 01:35:53;;;;;;;4.80;3.70;;;15.20;99.90;;;;;;5048843;28;20233;-79
2023/08/06 01:38:20;;;;;;;5.00;4.00;;;15.10;99.90;;;;;;5046713;28;20845;-79
2023/08/06 01:40:46;;;;;;;5.63;3.90;;;15.10;99.90;;;;;;5047657;28;20766;-79
2023/08/06 01:43:13;;;;;;;5.50;4.50;;;15.10;99.90;;;;;;5029877;28;20228;-79
2023/08/06 01:45:40;;;;;;;4.40;4.00;;;15.10;99.90;;;;;;5048355;28;20220;-79
2023/08/06 01:48:07;;;;;;;5.07;4.17;;;15.10;99.90;;;;;;5030006;28;20733;-79
2023/08/06 01:50:34;;;;;;;4.70;4.20;;;15.10;99.90;;;;;;5029545;28;20227;-79
2023/08/06 01:53:02;;;;;;;5.33;4.33;;;15.10;99.90;;;;;;5047763;28;20219;-79
2023/08/06 01:55:30;;;;;;;6.00;4.23;;;15.00;99.90;;;;;;5028817;28;20229;-78
2023/08/06 01:57:57;;;;;;;4.63;4.20;;;15.00;99.90;;;;;;5030218;28;20874;-79
2023/08/06 02:00:24;;;;;;;5.13;4.30;;;15.00;99.90;;;;;;5029739;28;20235;-79
2023/08/06 02:02:51;;;;;;;4.90;3.80;;;15.00;99.90;;;;;;5030225;28;20281;-79
2023/08/06 02:05:18;;;;;;;5.37;4.60;;;15.00;99.90;;;;;;5047275;28;20243;-79
2023/08/06 02:07:45;;;;;;;6.80;4.77;;;14.90;99.90;;;;;;5030039;28;20231;-79
2023/08/06 02:10:13;;;;;;;5.10;4.60;;;14.90;99.90;;;;;;5029292;28;20232;-79
2023/08/06 02:12:41;;;;;;;5.37;4.87;;;14.90;99.90;;;;;;5029863;28;20236;-77
2023/08/06 02:15:08;;;;;;;5.37;4.40;;;14.90;99.90;;;;;;5029392;28;20285;-78
2023/08/06 02:17:35;;;;;;;5.27;4.37;;;14.80;99.90;;;;;;5030296;28;20257;-78
2023/08/06 02:20:02;;;;;;;6.87;4.90;;;14.80;99.90;;;;;;5030151;28;20228;-79
2023/08/06 02:22:29;;;;;;;5.93;4.60;;;14.80;99.90;;;;;;5047589;28;20255;-79
2023/08/06 02:24:56;;;;;;;6.57;4.87;;;14.80;99.90;;;;;;5047905;28;20230;-78
2023/08/06 02:27:24;;;;;;;6.70;4.90;;;14.80;99.90;;;;;;5047618;28;20238;-80
2023/08/06 02:29:50;;;;;;;5.97;4.60;;;14.80;99.90;;;;;;5047742;28;20230;-80
2023/08/06 02:32:17;;;;;;;5.53;4.90;;;14.80;99.90;;;;;;5047739;28;20598;-79
2023/08/06 02:34:44;;;;;;;6.07;5.20;;;14.90;99.90;;;;;;5046537;28;20321;-80
2023/08/06 02:37:10;;;;;;;5.97;4.70;;;14.80;99.90;;;;;;5029544;28;20310;-81
2023/08/06 02:39:39;;;;;;;5.97;4.70;;;14.90;99.90;;;;;;5014288;28;20261;-80
2023/08/06 02:42:07;;;;;;;5.63;5.00;;;14.90;99.90;;;;;;5010085;28;20229;-79
2023/08/06 02:44:35;;;;;;;7.00;5.20;;;14.90;99.90;;;;;;5040447;28;20315;-80
2023/08/06 02:47:02;;;;;;;5.77;5.13;;;14.90;99.90;;;;;;5010248;28;20278;-80
2023/08/06 02:49:29;;;;;;;5.80;4.77;;;14.80;99.90;;;;;;5015652;28;20255;-80
2023/08/06 02:51:56;;;;;;;6.33;5.30;;;14.80;99.90;;;;;;5029250;28;20220;-81
2023/08/06 02:54:23;;;;;;;9.40;4.83;;;14.90;99.90;;;;;;5029345;28;21056;-80
2023/08/06 02:56:50;;;;;;;5.73;4.53;;;14.80;99.90;;;;;;5029956;28;20279;-81
2023/08/06 02:59:30;;;;;;;7.03;5.30;;;14.80;99.90;;;;;;5030243;28;20231;-81
2023/08/06 03:02:09;;;;;;;6.70;4.97;;;14.80;99.90;;;;;;5046167;28;20564;-81
2023/08/06 03:04:57;;;;;;;7.80;5.33;;;14.80;99.90;;;;;;5029728;28;20228;-79
2023/08/06 03:07:28;;;;;;;6.93;4.77;;;14.80;99.90;;;;;;5028983;28;20219;-78
2023/08/06 03:10:01;;;;;;;5.20;4.67;;;14.70;99.90;;;;;;5045443;28;20860;-81
2023/08/06 03:12:29;;;;;;;5.93;4.57;;;14.70;99.90;;;;;;5029526;28;20231;-82
2023/08/06 03:14:58;;;;;;;6.87;4.70;;;14.80;99.90;;;;;;5030960;28;20302;-82
2023/08/06 03:17:27;;;;;;;6.63;4.70;;;14.80;99.90;;;;;;5028805;28;20219;-80
2023/08/06 03:19:54;;;;;;;5.47;4.33;;;14.80;99.90;;;;;;5029215;28;20231;-80
2023/08/06 03:22:21;;;;;;;5.17;4.20;;;14.80;99.90;;;;;;5044588;28;20737;-81
2023/08/06 03:24:51;;;;;;;4.97;4.20;;;14.80;99.90;;;;;;5049526;28;20227;-81
2023/08/06 03:27:19;;;;;;;6.27;4.80;;;14.80;99.90;;;;;;5049341;28;20237;-81
2023/08/06 03:29:45;;;;;;;5.63;4.40;;;14.80;99.90;;;;;;5050026;28;20250;-81
2023/08/06 03:32:12;;;;;;;6.80;4.30;;;14.80;99.90;;;;;;5049267;28;20858;-80
2023/08/06 03:34:42;;;;;;;8.57;5.10;;;14.70;99.90;;;;;;5049421;28;20277;-80
2023/08/06 03:37:08;;;;;;;6.30;4.37;;;14.70;99.90;;;;;;5066871;28;20951;-80
2023/08/06 03:39:35;;;;;;;4.90;4.40;;;14.70;99.90;;;;;;5047477;28;20285;-80
2023/08/06 03:42:02;;;;;;;6.30;4.13;;;14.70;99.90;;;;;;5049221;28;20229;-80
2023/08/06 03:44:29;;;;;;;6.07;4.30;;;14.70;99.90;;;;;;5064116;28;20231;-79
2023/08/06 03:46:56;;;;;;;5.83;4.57;;;14.70;99.90;;;;;;5048722;28;20239;-80
2023/08/06 03:49:22;;;;;;;7.07;4.87;;;14.70;99.90;;;;;;5066303;28;20828;-78
2023/08/06 03:51:50;;;;;;;10.10;4.33;;;14.70;99.90;;;;;;5047927;28;20243;-80
2023/08/06 03:54:17;;;;;;;6.80;4.40;;;14.60;99.90;;;;;;5027666;28;20229;-79
2023/08/06 03:56:44;;;;;;;6.43;4.30;;;14.60;99.90;;;;;;5028153;28;20605;-79
2023/08/06 03:59:10;;;;;;;5.10;3.93;;;14.60;99.90;;;;;;5027075;28;20321;-79
2023/08/06 04:01:38;;;;;;;6.77;4.07;;;14.60;99.90;;;;;;5027585;28;20222;-80
2023/08/06 04:04:04;;;;;;;6.30;4.17;;;14.60;99.90;;;;;;5045225;28;20231;-81
2023/08/06 04:06:31;;;;;;;7.93;4.43;;;14.50;99.90;;;;;;5029391;28;20766;-80
2023/08/06 04:08:59;;;;;;;5.23;4.10;;;14.50;99.90;;;;;;5046519;28;20239;-79
2023/08/06 04:11:26;;;;;;;7.03;4.33;;;14.50;99.90;;;;;;5028721;28;20235;-80
2023/08/06 04:13:54;;;;;;;6.30;4.70;;;14.50;99.90;;;;;;5048025;28;20246;-80
2023/08/06 04:16:21;;;;;;;8.27;4.10;;;14.50;99.90;;;;;;5047484;28;20307;-79
2023/08/06 04:18:48;;;;;;;7.13;4.47;;;14.40;99.90;;;;;;5046558;28;20231;-80
2023/08/06 04:21:15;;;;;;;5.77;4.50;;;14.40;99.90;;;;;;5027292;28;20374;-80
2023/08/06 04:23:42;;;;;;;7.83;4.50;;;14.30;99.90;;;;;;5027799;28;20264;-80
2023/08/06 04:26:11;;;;;;;6.80;4.70;;;14.40;99.90;;;;;;5027308;28;20227;-78
2023/08/06 04:28:39;;;;;;;8.20;5.17;;;14.40;99.90;;;;;;5028427;28;20314;-78
2023/08/06 04:31:06;;;;;;;8.27;4.67;;;14.40;99.90;;;;;;5030046;28;20231;-80
2023/08/06 04:33:34;;;;;;;9.87;4.97;;;14.40;99.90;;;;;;5032787;28;20223;-79
2023/08/06 04:36:07;;;;;;;8.63;5.00;;;14.40;99.90;;;;;;5026905;28;20234;-79
2023/08/06 04:38:34;;;;;;;10.43;4.80;;;14.40;99.90;;;;;;5015447;28;20235;-79
2023/08/06 04:41:03;;;;;;;9.60;5.37;;;14.30;99.90;;;;;;5007086;28;20232;-79
2023/08/06 04:43:32;;;;;;;9.50;5.40;;;14.30;99.90;;;;;;5007191;28;20238;-79
2023/08/06 04:45:59;;;;;;;6.93;4.87;;;14.30;99.90;;;;;;5023310;28;20234;-79
2023/08/06 04:48:26;;;;;;;8.00;5.23;;;14.40;99.90;;;;;;5050521;28;20745;-78
2023/08/06 04:50:54;;;;;;;7.80;5.50;;;14.40;99.90;;;;;;5047238;28;20250;-78
2023/08/06 04:53:21;;;;;;;7.57;5.03;;;14.40;99.90;;;;;;5064555;28;20250;-79
2023/08/06 04:55:48;;;;;;;6.83;5.23;;;14.40;99.90;;;;;;5064907;28;20230;-78
2023/08/06 04:58:15;;;;;;;7.47;4.73;;;14.40;99.90;;;;;;5061381;28;20318;-79
2023/08/06 05:00:43;;;;;;;8.70;5.23;;;14.40;99.90;;;;;;5044839;28;20651;-79
2023/08/06 05:03:10;;;;;;;7.90;5.33;;;14.40;99.90;;;;;;5043564;28;20232;-79
2023/08/06 05:05:37;;;;;;;8.93;5.40;;;14.40;99.90;;;;;;5044800;28;20634;-79
2023/08/06 05:08:04;;;;;;;7.87;5.30;;;14.40;99.90;;;;;;5044487;28;20240;-79
2023/08/06 05:10:31;;;;;;;7.87;5.43;;;14.40;99.90;;;;;;5026455;28;20323;-78
2023/08/06 05:12:58;;;;;;;8.40;5.67;;;14.40;99.90;;;;;;5045385;28;20222;-78
2023/08/06 05:15:26;;;;;;;8.47;5.47;;;14.40;99.90;;;;;;5046666;28;20220;-78
2023/08/06 05:17:54;;;;;;;8.20;5.70;;;14.40;99.90;;;;;;5048084;28;20738;-79
2023/08/06 05:20:21;;;;;;;7.93;5.50;;;14.40;99.90;;;;;;5047662;28;20235;-79
2023/08/06 05:22:48;;;;;;;7.70;4.93;;;14.40;99.90;;;;;;5015985;28;20232;-81
2023/08/06 05:25:15;;;;;;;8.17;5.10;;;14.50;99.90;;;;;;5045753;28;20230;-80
2023/08/06 05:27:42;;;;;;;7.67;5.20;;;14.50;99.90;;;;;;5030508;28;20238;-77
2023/08/06 05:30:10;;;;;;;9.30;6.00;;;14.50;99.90;;;;;;5048022;28;20753;-78
2023/08/06 05:32:36;;;;;;;8.40;5.57;;;14.50;99.90;;;;;;5048363;28;20231;-78
2023/08/06 05:35:06;;;;;;;7.57;5.43;;;14.50;99.90;;;;;;5030879;28;20607;-78
2023/08/06 05:37:32;;;;;;;8.43;5.23;;;14.60;99.90;;;;;;5061208;28;20601;-78
2023/08/06 05:39:59;;;;;;;10.40;5.90;;;14.60;99.90;;;;;;5048859;28;20252;-78
2023/08/06 05:42:26;;;;;;;8.67;5.83;;;14.60;99.90;;;;;;5048488;28;20246;-78
2023/08/06 05:44:52;;;;;;;8.77;5.33;;;14.70;99.90;;;;;;5048135;28;20247;-76
2023/08/06 05:47:20;;;;;;;10.17;6.60;;;14.70;99.90;;;;;;5048045;28;20241;-77
2023/08/06 05:49:47;;;;;;;7.83;5.80;;;14.80;99.90;;;;;;5031126;28;20227;-78
2023/08/06 05:52:14;;;;;;;6.80;5.27;;;14.90;99.90;;;;;;5048159;28;20224;-78
2023/08/06 05:54:41;;;;;;;9.87;6.50;;;14.90;99.90;;;;;;5048558;28;20237;-79
2023/08/06 05:57:08;;;;;;;8.47;5.70;;;14.90;99.90;;;;;;5047997;28;20231;-79
2023/08/06 05:59:34;;;;;;;7.87;7.03;;;15.00;99.90;;;;;;5047900;28;20310;-79
2023/08/06 06:02:01;;;;;;;9.53;5.57;;;15.00;99.90;;;;;;5018994;28;20253;-80
2023/08/06 06:04:29;;;;;;;8.40;6.03;;;15.00;99.90;;;;;;5042976;28;20227;-80
2023/08/06 06:06:55;;;;;;;6.33;5.40;;;15.10;99.90;;;;;;5030983;28;20220;-80
2023/08/06 06:09:23;;;;;;;7.47;6.27;;;15.10;99.90;;;;;;5061466;28;20235;-80
2023/08/06 06:11:50;;;;;;;12.10;6.10;;;15.10;99.90;;;;;;5044321;28;20763;-79
2023/08/06 06:14:17;;;;;;;8.40;5.90;;;15.10;99.90;;;;;;5032186;28;20336;-80
2023/08/06 06:16:43;;;;;;;10.70;6.30;;;15.20;99.90;;;;;;5048844;28;20232;-80
2023/08/06 06:19:10;;;;;;;8.60;6.30;;;15.20;99.90;;;;;;5044749;28;20239;-80
2023/08/06 06:21:37;;;;;;;9.63;6.30;;;15.20;99.90;;;;;;5056101;28;20258;-80
2023/08/06 06:24:04;;;;;;;8.87;5.70;;;15.30;99.90;;;;;;5033446;28;20232;-80
2023/08/06 06:26:33;;;;;;;20.37;16.77;;;15.20;99.90;;;;;;5030848;28;20224;-80
2023/08/06 06:28:59;;;;;;;11.23;6.40;;;15.30;99.90;;;;;;5050421;28;20812;-81
2023/08/06 06:31:26;;;;;;;7.53;6.20;;;15.30;99.90;;;;;;5048500;28;20765;-81
2023/08/06 06:33:54;;;;;;;7.23;6.03;;;15.40;99.90;;;;;;5047662;28;20637;-80
2023/08/06 06:36:20;;;;;;;9.27;5.80;;;15.40;99.90;;;;;;5048925;28;20587;-81
2023/08/06 06:38:49;;;;;;;7.93;5.70;;;15.40;99.90;;;;;;5032247;28;20612;-79
2023/08/06 06:41:15;;;;;;;7.07;5.50;;;15.50;99.90;;;;;;5037688;28;20709;-79
2023/08/06 06:43:43;;;;;;;9.50;6.50;;;15.50;99.90;;;;;;5018801;28;20902;-80
2023/08/06 06:46:10;;;;;;;11.37;5.97;;;15.60;99.90;;;;;;5050956;28;20608;-82
2023/08/06 06:48:37;;;;;;;12.18;6.03;;;15.60;99.90;;;;;;5039890;28;20235;-81
2023/08/06 06:51:03;;;;;;;9.90;5.90;;;15.60;99.90;;;;;;5052647;28;20242;-81
2023/08/06 06:53:30;;;;;;;9.33;6.13;;;15.70;99.90;;;;;;5052150;28;20232;-80
2023/08/06 06:56:01;;;;;;;10.60;6.63;;;15.80;99.90;;;;;;5052188;28;20224;-78
2023/08/06 06:58:28;;;;;;;11.57;5.83;;;15.80;99.90;;;;;;5036149;28;20235;-79
2023/08/06 07:00:56;;;;;;;8.20;5.43;;;15.80;99.90;;;;;;5011573;28;20232;-78
2023/08/06 07:03:23;;;;;;;9.17;5.83;;;15.90;99.90;;;;;;5040224;28;20229;-78
2023/08/06 07:05:50;;;;;;;9.40;6.70;;;15.90;99.90;;;;;;5018357;28;20232;-79
2023/08/06 07:08:17;;;;;;;11.53;6.07;;;15.90;99.90;;;;;;5048873;28;20241;-79
2023/08/06 07:10:44;;;;;;;9.17;6.00;;;15.90;99.90;;;;;;5049245;28;20228;-79
2023/08/06 07:13:11;;;;;;;10.27;6.27;;;16.00;99.90;;;;;;5048060;28;20994;-79
2023/08/06 07:15:37;;;;;;;8.97;6.33;;;16.00;99.90;;;;;;5027451;28;20216;-78
2023/08/06 07:18:05;;;;;;;9.33;6.17;;;16.00;99.90;;;;;;5046944;28;20758;-78
2023/08/06 07:20:34;;;;;;;13.27;9.90;;;16.10;99.90;;;;;;5030267;28;20722;-78
2023/08/06 07:23:02;;;;;;;9.63;6.93;;;16.20;99.90;;;;;;5052304;28;20277;-79
2023/08/06 07:25:28;;;;;;;19.07;12.60;;;16.20;99.90;;;;;;5029948;28;20920;-79
2023/08/06 07:27:56;;;;;;;50.10;32.50;;;16.30;99.90;;;;;;5026437;28;20338;-80
2023/08/06 07:30:23;;;;;;;17.20;10.77;;;16.40;99.90;;;;;;5030092;28;20232;-80
2023/08/06 07:32:49;;;;;;;11.63;6.93;;;16.50;99.90;;;;;;5046497;28;20234;-80
2023/08/06 07:35:17;;;;;;;9.07;6.23;;;16.50;99.90;;;;;;5049189;28;20212;-79
2023/08/06 07:37:44;;;;;;;6.85;5.93;;;16.60;99.90;;;;;;5035440;28;20228;-80
2023/08/06 07:40:12;;;;;;;39.60;24.13;;;16.70;99.90;;;;;;5048302;28;20228;-80
2023/08/06 07:42:38;;;;;;;13.70;8.88;;;16.70;99.90;;;;;;5027809;28;20232;-80
2023/08/06 07:45:06;;;;;;;10.20;7.20;;;16.70;99.90;;;;;;5034873;28;20224;-80
2023/08/06 07:47:33;;;;;;;22.38;13.60;;;16.70;99.90;;;;;;5056674;28;20230;-80
2023/08/06 07:49:59;;;;;;;20.97;13.33;;;16.70;99.90;;;;;;5026403;28;20230;-80
2023/08/06 07:52:27;;;;;;;10.82;5.80;;;16.70;99.90;;;;;;5029069;28;20230;-80
2023/08/06 07:54:54;;;;;;;12.68;8.10;;;16.70;99.90;;;;;;5041765;28;20228;-79
2023/08/06 07:57:20;;;;;;;38.88;22.60;;;16.70;99.90;;;;;;5023469;28;20243;-81
2023/08/06 07:59:47;;;;;;;12.70;7.20;;;16.70;99.90;;;;;;5035226;28;20228;-81
2023/08/06 08:02:14;;;;;;;9.07;6.88;;;16.70;99.90;;;;;;5038541;28;20228;-81
2023/08/06 08:04:40;;;;;;;11.33;7.40;;;16.70;99.90;;;;;;5037957;28;20308;-81
2023/08/06 08:07:07;;;;;;;8.90;6.20;;;16.80;99.90;;;;;;5042643;28;20792;-81
2023/08/06 08:09:36;;;;;;;9.75;7.25;;;16.80;99.90;;;;;;5024968;28;20224;-81
2023/08/06 08:12:04;;;;;;;9.20;6.75;;;16.90;99.90;;;;;;5053902;28;20211;-81
2023/08/06 08:14:35;;;;;;;12.27;8.23;;;16.90;99.90;;;;;;5042962;28;20262;-81
2023/08/06 08:17:02;;;;;;;7.85;6.50;;;17.00;99.90;;;;;;5042134;28;20568;-81
2023/08/06 08:19:29;;;;;;;12.25;6.80;;;17.00;99.90;;;;;;5024761;28;20243;-81
2023/08/06 08:21:55;;;;;;;10.25;8.13;;;17.00;99.90;;;;;;5040309;28;20258;-81
2023/08/06 08:24:23;;;;;;;10.23;6.30;;;17.10;99.90;;;;;;5023961;28;20232;-81
2023/08/06 08:26:52;;;;;;;9.10;6.07;;;17.10;99.90;;;;;;5044603;28;20247;-81
2023/08/06 08:29:18;;;;;;;9.07;7.25;;;17.20;99.90;;;;;;5042929;28;20225;-81
2023/08/06 08:31:45;;;;;;;15.07;8.82;;;17.20;99.90;;;;;;5025760;28;20220;-81
2023/08/06 08:34:12;;;;;;;8.02;6.60;;;17.20;99.90;;;;;;5019781;28;20315;-81
2023/08/06 08:36:38;;;;;;;10.45;6.47;;;17.20;99.90;;;;;;5045319;28;20223;-81
2023/08/06 08:39:05;;;;;;;7.60;6.15;;;17.30;99.90;;;;;;5035271;28;20227;-81
2023/08/06 08:41:33;;;;;;;8.77;6.30;;;17.30;99.90;;;;;;5025821;28;20627;-81
2023/08/06 08:44:02;;;;;;;9.73;6.25;;;17.30;99.90;;;;;;5019891;28;20230;-81
2023/08/06 08:46:31;;;;;;;7.90;6.53;;;17.30;99.90;;;;;;5041913;28;20228;-81
2023/08/06 08:49:00;;;;;;;10.07;6.43;;;17.30;99.90;;;;;;5023050;28;20228;-81
2023/08/06 08:51:27;;;;;;;9.88;7.22;;;17.30;99.90;;;;;;5048043;28;20238;-81
2023/08/06 08:53:56;;;;;;;7.40;6.70;;;17.30;99.90;;;;;;5028907;28;20208;-81
2023/08/06 08:56:23;;;;;;;11.90;6.88;;;17.30;99.90;;;;;;5044423;28;20224;-81
2023/08/06 08:58:49;;;;;;;9.23;6.65;;;17.40;99.90;;;;;;5048764;28;20710;-81
2023/08/06 09:01:18;;;;;;;8.88;6.45;;;17.40;99.90;;;;;;5046205;28;20875;-81
2023/08/06 09:03:46;;;;;;;11.98;6.57;;;17.40;99.90;;;;;;5044571;28;20231;-81
2023/08/06 09:06:14;;;;;;;8.32;7.15;;;17.40;99.90;;;;;;5025880;28;20232;-81
2023/08/06 09:08:48;;;;;;;8.32;6.78;;;17.30;99.90;;;;;;5025040;28;20219;-80
2023/08/06 09:11:14;;;;;;;10.30;7.20;;;17.30;99.90;;;;;;5042749;28;20228;-81
2023/08/06 09:13:41;;;;;;;10.27;7.35;;;17.20;99.90;;;;;;5045427;28;20216;-81
2023/08/06 09:16:08;;;;;;;10.07;7.32;;;17.20;99.90;;;;;;5042281;28;20220;-81
2023/08/06 09:18:40;;;;;;;8.32;6.57;;;17.20;99.90;;;;;;5039476;28;20224;-81
2023/08/06 09:21:06;;;;;;;9.50;7.57;;;17.20;99.90;;;;;;5042773;28;20224;-81
2023/08/06 09:23:33;;;;;;;147.82;73.50;;;17.20;99.90;;;;;;5042613;28;20228;-81
2023/08/06 09:26:01;;;;;;;49.13;32.03;;;17.10;99.90;;;;;;5052515;28;20224;-81
2023/08/06 09:28:38;;;;;;;121.63;82.30;;;17.00;99.90;;;;;;5030734;28;20252;-80
2023/08/06 09:31:05;;;;;;;29.17;19.70;;;17.00;99.90;;;;;;5042249;28;20216;-80
2023/08/06 09:33:32;;;;;;;12.30;9.85;;;16.90;99.90;;;;;;5048640;28;20251;-80
2023/08/06 09:36:08;;;;;;;16.00;12.87;;;16.80;99.90;;;;;;5047350;28;20212;-80
2023/08/06 09:38:39;;;;;;;42.10;31.73;;;16.70;99.90;;;;;;5028799;28;20231;-80
2023/08/06 09:41:06;;;;;;;22.43;18.60;;;16.60;99.90;;;;;;5039900;28;20217;-80
2023/08/06 09:43:40;;;;;;;19.25;15.52;;;16.60;99.90;;;;;;5029103;28;20217;-80
2023/08/06 09:46:12;;;;;;;11.93;8.55;;;16.50;99.90;;;;;;5026195;28;20221;-80
2023/08/06 09:48:40;;;;;;;10.87;9.30;;;16.40;99.90;;;;;;5044583;28;20220;-80
2023/08/06 09:51:09;;;;;;;11.07;8.53;;;16.40;99.90;;;;;;5031234;28;20224;-80
2023/08/06 09:53:37;;;;;;;9.30;8.23;;;16.30;99.90;;;;;;5027271;28;20230;-80
2023/08/06 09:56:04;;;;;;;18.17;12.63;;;16.20;99.90;;;;;;5023656;28;20295;-80
2023/08/06 09:58:32;;;;;;;10.47;9.37;;;16.10;99.90;;;;;;5041086;28;20224;-80
2023/08/06 10:01:00;;;;;;;11.03;8.90;;;16.00;99.90;;;;;;5047718;28;20320;-80
2023/08/06 10:03:28;;;;;;;10.00;8.73;;;16.00;99.90;;;;;;5042193;28;20228;-80
2023/08/06 10:05:56;;;;;;;10.57;9.43;;;15.90;99.90;;;;;;5037451;28;20313;-79
2023/08/06 10:08:24;;;;;;;9.13;8.23;;;15.90;99.90;;;;;;5041795;28;20224;-80
2023/08/06 10:10:51;;;;;;;11.63;8.53;;;15.80;99.90;;;;;;5026379;28;20200;-78
2023/08/06 10:13:22;;;;;;;14.60;10.23;;;15.80;99.90;;;;;;5043938;28;20243;-79
2023/08/06 10:15:49;;;;;;;30.37;22.20;;;15.80;99.90;;;;;;5029855;28;20224;-79
2023/08/06 10:18:21;;;;;;;22.80;15.80;;;15.80;99.90;;;;;;5039204;28;20228;-79
2023/08/06 10:20:47;;;;;;;12.93;11.17;;;15.70;99.90;;;;;;5044036;28;20228;-79
2023/08/06 10:23:14;;;;;;;45.93;31.17;;;15.70;99.90;;;;;;5022068;28;20225;-79
2023/08/06 10:25:43;;;;;;;12.23;9.90;;;15.70;99.90;;;;;;5029536;28;20330;-79
2023/08/06 10:28:13;;;;;;;13.67;10.67;;;15.60;99.90;;;;;;5031493;28;20263;-78
2023/08/06 10:30:45;;;;;;;13.00;10.13;;;15.60;99.90;;;;;;5028814;28;20250;-77
2023/08/06 10:33:11;;;;;;;11.83;9.40;;;15.50;99.90;;;;;;5027545;28;20759;-77
2023/08/06 10:35:43;;;;;;;11.57;9.80;;;15.50;99.90;;;;;;5047782;28;20227;-77
2023/08/06 10:38:11;;;;;;;13.83;10.57;;;15.50;99.90;;;;;;5025916;28;20228;-78
2023/08/06 10:40:38;;;;;;;11.50;9.37;;;15.50;99.90;;;;;;5042363;28;20660;-78
2023/08/06 10:43:08;;;;;;;12.47;11.30;;;15.50;99.90;;;;;;5061787;28;20425;-77
2023/08/06 10:45:36;;;;;;;11.03;9.40;;;15.50;99.90;;;;;;5043169;28;20244;-78
2023/08/06 10:48:03;;;;;;;12.17;8.87;;;15.50;99.90;;;;;;5040857;28;20755;-78
2023/08/06 10:50:31;;;;;;;12.47;9.33;;;15.50;99.90;;;;;;5022997;28;20475;-78
2023/08/06 10:52:58;;;;;;;10.67;9.20;;;15.50;99.90;;;;;;5030146;28;20211;-77
2023/08/06 10:55:26;;;;;;;11.60;9.03;;;15.50;99.90;;;;;;5043300;28;20228;-78
2023/08/06 10:57:54;;;;;;;10.77;8.93;;;15.50;99.90;;;;;;5041557;28;20219;-77
2023/08/06 11:00:23;;;;;;;10.33;8.80;;;15.40;99.90;;;;;;5025990;28;20216;-78
2023/08/06 11:02:51;;;;;;;11.93;9.43;;;15.50;99.90;;;;;;5038537;28;20226;-78
2023/08/06 11:05:18;;;;;;;10.93;9.10;;;15.50;99.90;;;;;;5026758;28;20734;-78
2023/08/06 11:07:44;;;;;;;10.77;9.60;;;15.50;99.90;;;;;;5046874;28;20227;-78
2023/08/06 11:10:13;;;;;;;11.17;9.80;;;15.50;99.90;;;;;;5042294;28;20303;-78
2023/08/06 11:12:40;;;;;;;22.73;17.40;;;15.50;99.90;;;;;;5041160;28;20220;-78
2023/08/06 11:15:08;;;;;;;33.73;24.70;;;15.60;99.90;;;;;;5037390;28;20216;-78
2023/08/06 11:17:36;;;;;;;30.40;21.57;;;15.60;99.90;;;;;;5043161;28;20231;-78
2023/08/06 11:20:04;;;;;;;12.20;10.40;;;15.70;99.90;;;;;;5042867;28;20216;-78
2023/08/06 11:22:31;;;;;;;14.77;11.70;;;15.70;99.90;;;;;;5028623;28;20237;-78
2023/08/06 11:24:58;;;;;;;10.90;8.93;;;15.70;99.90;;;;;;5046485;28;20224;-78
2023/08/06 11:27:27;;;;;;;17.37;15.33;;;15.70;99.90;;;;;;5045427;28;20224;-78
2023/08/06 11:29:54;;;;;;;12.87;10.57;;;15.80;99.90;;;;;;5044513;28;20247;-78
2023/08/06 11:32:21;;;;;;;11.37;9.23;;;15.80;99.90;;;;;;5039062;28;20224;-78
2023/08/06 11:34:49;;;;;;;9.50;8.50;;;15.80;99.90;;;;;;5026045;28;20240;-78
2023/08/06 11:37:16;;;;;;;11.17;9.97;;;15.90;99.90;;;;;;5039560;28;20219;-78
2023/08/06 11:39:49;;;;;;;10.77;9.67;;;15.90;99.90;;;;;;5040023;28;20228;-78
2023/08/06 11:42:15;;;;;;;11.17;10.03;;;16.00;99.90;;;;;;5038446;28;20235;-78
2023/08/06 11:44:45;;;;;;;9.67;7.80;;;16.00;99.90;;;;;;5042673;28;20731;-78
2023/08/06 11:47:14;;;;;;;10.67;8.50;;;16.10;99.90;;;;;;5046492;28;20800;-78
2023/08/06 11:49:44;;;;;;;11.63;8.50;;;16.10;99.90;;;;;;5055087;28;20830;-78
2023/08/06 11:52:18;;;;;;;10.57;9.10;;;16.10;99.90;;;;;;5025802;28;20279;-78
2023/08/06 11:54:45;;;;;;;11.90;9.10;;;16.10;99.90;;;;;;5041405;28;20223;-78
2023/08/06 11:57:12;;;;;;;10.00;9.00;;;16.20;99.90;;;;;;5022625;28;20269;-78
2023/08/06 11:59:40;;;;;;;9.47;8.47;;;16.20;99.90;;;;;;5027188;28;20234;-78
2023/08/06 12:02:10;;;;;;;9.67;7.80;;;16.20;99.90;;;;;;5044501;28;20311;-78
2023/08/06 12:04:58;;;;;;;10.37;8.97;;;16.20;99.90;;;;;;5037717;28;20223;-78
2023/08/06 12:07:31;;;;;;;10.70;7.73;;;16.20;99.90;;;;;;5040407;28;20713;-78
2023/08/06 12:09:59;;;;;;;9.67;8.33;;;16.30;99.90;;;;;;5044077;28;20326;-78
2023/08/06 12:12:26;;;;;;;9.33;8.37;;;16.40;99.90;;;;;;5043591;28;20230;-78
2023/08/06 12:14:52;;;;;;;10.83;8.63;;;16.50;99.90;;;;;;5041621;28;20226;-78
2023/08/06 12:17:19;;;;;;;9.30;8.33;;;16.60;99.90;;;;;;5042875;28;20220;-78
2023/08/06 12:19:47;;;;;;;9.13;7.80;;;16.70;99.90;;;;;;5043642;28;20757;-78
2023/08/06 12:22:14;;;;;;;12.30;8.30;;;16.80;99.90;;;;;;5045248;28;20695;-79
2023/08/06 12:24:42;;;;;;;10.70;7.82;;;16.90;99.90;;;;;;5029686;28;20220;-78
2023/08/06 12:27:09;;;;;;;8.20;7.18;;;17.00;99.90;;;;;;5029060;28;20223;-79
2023/08/06 12:29:36;;;;;;;9.07;7.38;;;17.10;99.90;;;;;;5045663;28;20238;-79
2023/08/06 12:32:04;;;;;;;7.63;6.82;;;17.20;99.90;;;;;;5042965;28;20217;-79
2023/08/06 12:34:31;;;;;;;9.05;7.18;;;17.30;99.90;;;;;;5039800;28;20811;-79
2023/08/06 12:36:57;;;;;;;8.00;6.80;;;17.40;99.90;;;;;;5045357;28;20287;-79
2023/08/06 12:39:24;;;;;;;10.20;6.82;;;17.40;99.90;;;;;;5024086;28;20933;-79
2023/08/06 12:41:52;;;;;;;7.82;6.88;;;17.50;99.90;;;;;;5030227;28;20230;-80
2023/08/06 12:44:19;;;;;;;9.05;7.55;;;17.60;99.90;;;;;;5029905;28;21119;-79
2023/08/06 12:46:45;;;;;;;8.38;7.20;;;17.70;99.90;;;;;;5046365;28;20228;-79